createdAt,value
2019-06-26T03:35:52.232Z,67.90
2019-06-26T03:38:49.004Z,68.40
2019-06-26T03:41:46.683Z,67.80
2019-06-26T03:44:41.181Z,67.70
2019-06-26T03:47:39.381Z,68.00
2019-06-26T03:50:41.608Z,68.10
2019-06-26T03:53:47.038Z,67.90
2019-06-26T03:56:56.181Z,67.70
2019-06-26T03:59:50.826Z,67.60
2019-06-26T04:02:51.628Z,67.40
2019-06-26T04:05:47.953Z,67.80
2019-06-26T04:08:42.527Z,70.70
2019-06-26T04:11:42.910Z,72.30
2019-06-26T04:14:38.121Z,72.40
2019-06-26T04:20:56.241Z,71.70
2019-06-26T04:23:51.832Z,71.20
2019-06-26T04:26:48.870Z,70.60
2019-06-26T04:29:43.350Z,70.20
2019-06-26T04:32:43.080Z,69.80
2019-06-26T04:35:41.735Z,69.60
2019-06-26T04:38:42.796Z,69.30
2019-06-26T04:41:37.130Z,69.00
2019-06-26T04:44:36.853Z,68.80
2019-06-26T04:47:46.893Z,68.60
2019-06-26T04:50:51.430Z,68.40
2019-06-26T04:53:50.578Z,68.20
2019-06-26T04:56:46.405Z,68.20
2019-06-26T04:59:44.169Z,68.20
2019-06-26T05:02:39.434Z,68.00
2019-06-26T05:05:39.389Z,68.00
2019-06-26T05:08:33.854Z,67.90
2019-06-26T05:11:31.326Z,67.90
2019-06-26T05:14:30.796Z,67.70
2019-06-26T05:17:32.973Z,67.60
2019-06-26T05:20:29.205Z,67.50
2019-06-26T05:23:30.562Z,67.50
2019-06-26T05:26:27.940Z,68.00
2019-06-26T05:29:22.372Z,67.30
2019-06-26T05:32:18.117Z,67.00
2019-06-26T05:35:13.305Z,67.00
2019-06-26T05:38:09.273Z,66.40
2019-06-26T05:41:20.984Z,65.90
2019-06-26T05:44:13.720Z,65.80
2019-06-26T05:47:12.148Z,65.60
2019-06-26T05:50:06.608Z,65.50
2019-06-26T05:53:02.061Z,65.40
2019-06-26T05:55:59.536Z,65.20
2019-06-26T05:58:54.577Z,65.00
2019-06-26T06:01:57.013Z,64.90
2019-06-26T06:04:58.252Z,64.90
2019-06-26T06:11:13.505Z,64.50
2019-06-26T06:14:13.030Z,64.40
2019-06-26T06:17:10.473Z,64.20
2019-06-26T06:20:26.876Z,64.10
2019-06-26T06:23:24.410Z,63.90
2019-06-26T06:26:18.066Z,63.70
2019-06-26T06:29:15.371Z,63.60
2019-06-26T06:32:13.554Z,63.60
2019-06-26T06:35:09.640Z,63.60
2019-06-26T06:38:06.132Z,63.30
2019-06-26T06:40:59.546Z,63.20
2019-06-26T06:43:52.589Z,63.00
2019-06-26T06:46:59.461Z,63.10
2019-06-26T06:49:42.693Z,63.10
2019-06-26T06:52:38.550Z,63.00
2019-06-26T06:55:35.252Z,63.00
2019-06-26T06:58:31.848Z,63.00
2019-06-26T07:01:24.235Z,63.00
2019-06-26T07:04:17.186Z,63.20
2019-06-26T07:07:11.861Z,62.80
2019-06-26T07:10:06.106Z,62.80
2019-06-26T07:12:59.753Z,62.70
2019-06-26T07:15:54.548Z,62.70
2019-06-26T07:18:47.858Z,62.70
2019-06-26T07:21:44.925Z,62.70
2019-06-26T07:24:40.051Z,62.60
2019-06-26T07:27:33.944Z,62.70
2019-06-26T07:30:26.638Z,62.70
2019-06-26T07:33:19.385Z,62.60
2019-06-26T07:36:11.901Z,62.50
2019-06-26T07:39:05.825Z,62.40
2019-06-26T07:42:07.388Z,62.40
2019-06-26T07:45:01.023Z,62.30
2019-06-26T07:47:55.270Z,62.20
2019-06-26T07:50:49.181Z,62.30
2019-06-26T07:53:43.032Z,62.20
2019-06-26T07:56:36.298Z,62.10
2019-06-26T07:59:38.228Z,62.10
2019-06-26T08:02:33.994Z,62.20
2019-06-26T08:05:27.675Z,62.20
2019-06-26T08:08:21.756Z,62.20
2019-06-26T08:11:15.275Z,62.00
2019-06-26T08:14:08.575Z,62.00
2019-06-26T08:17:03.364Z,62.00
2019-06-26T08:19:58.332Z,61.90
2019-06-26T08:22:54.240Z,61.90
2019-06-26T08:25:54.661Z,61.80
2019-06-26T08:28:50.308Z,61.70
2019-06-26T08:31:46.445Z,61.50
2019-06-26T08:34:40.958Z,61.50
2019-06-26T08:37:34.471Z,61.60
2019-06-26T08:40:28.965Z,61.40
2019-06-26T08:43:23.956Z,61.40
2019-06-26T08:46:16.945Z,61.20
2019-06-26T08:49:24.409Z,61.20
2019-06-26T08:52:04.648Z,61.20
2019-06-26T08:54:58.473Z,61.20
2019-06-26T08:57:53.373Z,61.20
2019-06-26T09:00:49.637Z,61.20
2019-06-26T09:03:44.160Z,61.10
2019-06-26T09:06:38.160Z,61.00
2019-06-26T09:09:30.619Z,61.10
2019-06-26T09:12:24.719Z,61.00
2019-06-26T09:15:20.191Z,61.10
2019-06-26T09:18:12.998Z,61.00
2019-06-26T09:21:05.821Z,61.00
2019-06-26T09:23:58.910Z,61.10
2019-06-26T09:26:53.736Z,61.10
2019-06-26T09:29:56.129Z,60.90
2019-06-26T09:32:48.870Z,60.70
2019-06-26T09:35:42.533Z,60.80
2019-06-26T09:38:40.959Z,60.60
2019-06-26T09:41:34.623Z,60.50
2019-06-26T09:44:28.014Z,60.50
2019-06-26T09:47:21.473Z,60.40
2019-06-26T09:50:18.385Z,60.50
2019-06-26T09:53:21.030Z,60.50
2019-06-26T09:56:21.344Z,60.40
2019-06-26T09:59:18.067Z,60.60
2019-06-26T10:02:14.739Z,60.50
2019-06-26T10:05:12.085Z,60.40
2019-06-26T10:08:10.719Z,60.70
2019-06-26T10:11:04.371Z,60.70
2019-06-26T10:13:56.939Z,60.70
2019-06-26T10:16:53.899Z,60.60
2019-06-26T10:19:48.347Z,60.50
2019-06-26T10:22:50.394Z,60.60
2019-06-26T10:25:45.326Z,60.40
2019-06-26T10:28:45.257Z,60.40
2019-06-26T10:31:38.217Z,60.30
2019-06-26T10:34:34.163Z,60.20
2019-06-26T10:37:29.447Z,60.30
2019-06-26T10:40:23.449Z,60.30
2019-06-26T10:43:18.934Z,60.30
2019-06-26T10:46:13.908Z,60.30
2019-06-26T10:49:07.982Z,60.20
2019-06-26T10:52:00.463Z,60.10
2019-06-26T10:54:54.780Z,60.00
2019-06-26T10:57:48.751Z,60.10
2019-06-26T11:00:42.575Z,60.10
2019-06-26T11:03:35.796Z,59.90
2019-06-26T11:06:28.946Z,59.90
2019-06-26T11:09:27.572Z,60.00
2019-06-26T11:12:21.669Z,59.90
2019-06-26T11:15:16.257Z,59.80
2019-06-26T11:18:11.736Z,59.80
2019-06-26T11:21:05.298Z,59.90
2019-06-26T11:24:01.420Z,59.80
2019-06-26T11:29:57.245Z,59.60
2019-06-26T11:32:50.513Z,59.60
2019-06-26T11:35:46.222Z,59.40
2019-06-26T11:38:39.450Z,59.40
2019-06-26T11:41:33.883Z,59.40
2019-06-26T11:44:27.877Z,59.40
2019-06-26T11:47:20.736Z,59.30
2019-06-26T11:50:15.216Z,59.40
2019-06-26T11:53:08.794Z,59.20
2019-06-26T11:56:03.588Z,59.30
2019-06-26T11:58:59.556Z,59.40
2019-06-26T12:01:52.650Z,59.20
2019-06-26T12:04:49.907Z,59.20
2019-06-26T12:07:46.285Z,59.00
2019-06-26T12:10:39.607Z,59.10
2019-06-26T12:13:33.577Z,59.00
2019-06-26T12:16:28.183Z,59.10
2019-06-26T12:19:23.580Z,59.10
2019-06-26T12:22:21.723Z,59.10
2019-06-26T12:25:16.057Z,59.10
2019-06-26T12:28:10.140Z,59.00
2019-06-26T12:31:03.540Z,58.80
2019-06-26T12:33:58.372Z,58.90
2019-06-26T12:36:52.050Z,58.90
2019-06-26T12:39:45.073Z,58.90
2019-06-26T12:42:39.690Z,59.20
2019-06-26T12:45:33.399Z,59.10
2019-06-26T12:48:28.206Z,59.20
2019-06-26T12:51:24.812Z,59.20
2019-06-26T12:54:23.764Z,59.20
2019-06-26T12:57:16.180Z,59.10
2019-06-26T13:00:11.309Z,59.10
2019-06-26T13:03:05.914Z,59.10
2019-06-26T13:06:01.018Z,59.10
2019-06-26T13:08:55.417Z,59.10
2019-06-26T13:11:49.716Z,59.30
2019-06-26T13:14:43.461Z,59.30
2019-06-26T13:17:37.756Z,59.40
2019-06-26T13:20:32.579Z,59.40
2019-06-26T13:23:27.361Z,59.50
2019-06-26T13:26:20.895Z,59.60
2019-06-26T13:29:14.422Z,59.80
2019-06-26T13:32:09.674Z,59.90
2019-06-26T13:35:04.961Z,60.00
2019-06-26T13:38:03.386Z,60.10
2019-06-26T13:40:58.594Z,60.30
2019-06-26T13:43:54.686Z,60.40
2019-06-26T13:46:49.890Z,60.60
2019-06-26T13:49:44.195Z,60.50
2019-06-26T13:52:39.931Z,60.50
2019-06-26T13:55:35.871Z,60.70
2019-06-26T13:58:30.367Z,60.90
2019-06-26T14:01:24.469Z,60.90
2019-06-26T14:04:18.771Z,60.70
2019-06-26T14:07:15.252Z,60.60
2019-06-26T14:10:10.446Z,60.70
2019-06-26T14:13:04.545Z,60.60
2019-06-26T14:16:00.266Z,60.90
2019-06-26T14:18:56.335Z,61.00
2019-06-26T14:21:50.419Z,61.00
2019-06-26T14:24:47.837Z,61.10
